sensor_id;sensor_type;location;lat;lon;timestamp;P1;durP1;ratioP1;P2;durP2;ratioP2
37873;SDS011;23709;48.078;11.684;2023-09-12T00:00:13;21.70;;;15.98;;
37873;SDS011;23709;48.078;11.684;2023-09-12T00:02:46;21.57;;;16.70;;
37873;SDS011;23709;48.078;11.684;2023-09-12T00:05:18;19.80;;;15.68;;
37873;SDS011;23709;48.078;11.684;2023-09-12T00:07:54;20.45;;;16.90;;
37873;SDS011;23709;48.078;11.684;2023-09-12T00:10:26;23.35;;;17.33;;
37873;SDS011;23709;48.078;11.684;2023-09-12T00:12:59;21.58;;;16.13;;
37873;SDS011;23709;48.078;11.684;2023-09-12T00:15:32;18.58;;;15.20;;
37873;SDS011;23709;48.078;11.684;2023-09-12T00:18:04;19.73;;;14.80;;
37873;SDS011;23709;48.078;11.684;2023-09-12T00:20:37;22.58;;;16.02;;
37873;SDS011;23709;48.078;11.684;2023-09-12T00:23:09;18.42;;;15.93;;
37873;SDS011;23709;48.078;11.684;2023-09-12T00:25:41;21.50;;;16.63;;
37873;SDS011;23709;48.078;11.684;2023-09-12T00:28:14;19.45;;;16.02;;
37873;SDS011;23709;48.078;11.684;2023-09-12T00:30:46;21.75;;;16.40;;
37873;SDS011;23709;48.078;11.684;2023-09-12T00:33:18;23.63;;;16.88;;
37873;SDS011;23709;48.078;11.684;2023-09-12T00:35:51;19.75;;;15.63;;
37873;SDS011;23709;48.078;11.684;2023-09-12T00:38:24;17.73;;;15.02;;
37873;SDS011;23709;48.078;11.684;2023-09-12T00:40:56;17.85;;;15.48;;
37873;SDS011;23709;48.078;11.684;2023-09-12T00:43:29;17.98;;;15.05;;
37873;SDS011;23709;48.078;11.684;2023-09-12T00:46:01;20.08;;;16.73;;
37873;SDS011;23709;48.078;11.684;2023-09-12T00:48:33;19.77;;;15.45;;
37873;SDS011;23709;48.078;11.684;2023-09-12T00:51:08;18.17;;;14.82;;
37873;SDS011;23709;48.078;11.684;2023-09-12T00:53:41;19.95;;;14.52;;
37873;SDS011;23709;48.078;11.684;2023-09-12T00:56:14;18.60;;;15.30;;
37873;SDS011;23709;48.078;11.684;2023-09-12T00:58:47;17.67;;;14.80;;
37873;SDS011;23709;48.078;11.684;2023-09-12T01:01:22;18.38;;;15.20;;
37873;SDS011;23709;48.078;11.684;2023-09-12T01:03:55;21.45;;;14.93;;
37873;SDS011;23709;48.078;11.684;2023-09-12T01:06:28;19.20;;;15.32;;
37873;SDS011;23709;48.078;11.684;2023-09-12T01:09:03;18.50;;;15.60;;
37873;SDS011;23709;48.078;11.684;2023-09-12T01:11:36;21.67;;;16.13;;
37873;SDS011;23709;48.078;11.684;2023-09-12T01:18:08;19.83;;;15.18;;
37873;SDS011;23709;48.078;11.684;2023-09-12T01:20:42;24.17;;;15.57;;
37873;SDS011;23709;48.078;11.684;2023-09-12T01:29:01;19.52;;;16.08;;
37873;SDS011;23709;48.078;11.684;2023-09-12T01:31:36;18.58;;;15.05;;
37873;SDS011;23709;48.078;11.684;2023-09-12T01:34:12;18.40;;;14.48;;
37873;SDS011;23709;48.078;11.684;2023-09-12T01:39:18;20.27;;;15.48;;
37873;SDS011;23709;48.078;11.684;2023-09-12T01:41:51;16.73;;;14.17;;
37873;SDS011;23709;48.078;11.684;2023-09-12T01:44:25;17.38;;;13.98;;
37873;SDS011;23709;48.078;11.684;2023-09-12T01:47:02;21.63;;;15.15;;
37873;SDS011;23709;48.078;11.684;2023-09-12T01:49:37;18.70;;;15.18;;
37873;SDS011;23709;48.078;11.684;2023-09-12T01:52:13;20.75;;;15.75;;
37873;SDS011;23709;48.078;11.684;2023-09-12T01:54:46;17.80;;;15.05;;
37873;SDS011;23709;48.078;11.684;2023-09-12T01:57:19;19.10;;;14.63;;
37873;SDS011;23709;48.078;11.684;2023-09-12T01:59:52;17.73;;;14.30;;
37873;SDS011;23709;48.078;11.684;2023-09-12T02:02:25;20.35;;;15.00;;
37873;SDS011;23709;48.078;11.684;2023-09-12T02:05:06;20.08;;;15.40;;
37873;SDS011;23709;48.078;11.684;2023-09-12T02:07:49;19.73;;;15.45;;
37873;SDS011;23709;48.078;11.684;2023-09-12T02:10:21;18.20;;;14.93;;
37873;SDS011;23709;48.078;11.684;2023-09-12T02:12:54;17.23;;;14.55;;
37873;SDS011;23709;48.078;11.684;2023-09-12T02:15:27;17.85;;;14.82;;
37873;SDS011;23709;48.078;11.684;2023-09-12T02:18:00;19.45;;;14.38;;
37873;SDS011;23709;48.078;11.684;2023-09-12T02:20:37;21.80;;;14.07;;
37873;SDS011;23709;48.078;11.684;2023-09-12T02:23:10;22.10;;;14.30;;
37873;SDS011;23709;48.078;11.684;2023-09-12T02:25:42;17.05;;;13.68;;
37873;SDS011;23709;48.078;11.684;2023-09-12T02:28:14;21.15;;;15.13;;
37873;SDS011;23709;48.078;11.684;2023-09-12T02:30:47;20.23;;;14.32;;
37873;SDS011;23709;48.078;11.684;2023-09-12T02:33:19;15.90;;;13.95;;
37873;SDS011;23709;48.078;11.684;2023-09-12T02:35:51;17.08;;;14.15;;
37873;SDS011;23709;48.078;11.684;2023-09-12T02:38:23;23.75;;;15.52;;
37873;SDS011;23709;48.078;11.684;2023-09-12T02:40:56;20.70;;;15.00;;
37873;SDS011;23709;48.078;11.684;2023-09-12T02:43:28;18.17;;;14.23;;
37873;SDS011;23709;48.078;11.684;2023-09-12T02:46:01;17.65;;;14.57;;
37873;SDS011;23709;48.078;11.684;2023-09-12T02:48:33;18.35;;;14.57;;
37873;SDS011;23709;48.078;11.684;2023-09-12T02:51:05;18.17;;;14.02;;
37873;SDS011;23709;48.078;11.684;2023-09-12T02:53:38;22.08;;;14.90;;
37873;SDS011;23709;48.078;11.684;2023-09-12T02:56:10;16.13;;;14.10;;
37873;SDS011;23709;48.078;11.684;2023-09-12T02:58:45;21.92;;;15.13;;
37873;SDS011;23709;48.078;11.684;2023-09-12T03:01:18;18.45;;;14.80;;
37873;SDS011;23709;48.078;11.684;2023-09-12T03:03:52;19.40;;;15.25;;
37873;SDS011;23709;48.078;11.684;2023-09-12T03:06:24;17.60;;;14.43;;
37873;SDS011;23709;48.078;11.684;2023-09-12T03:08:56;18.08;;;14.35;;
37873;SDS011;23709;48.078;11.684;2023-09-12T03:11:29;24.10;;;14.50;;
37873;SDS011;23709;48.078;11.684;2023-09-12T03:14:01;16.55;;;14.38;;
37873;SDS011;23709;48.078;11.684;2023-09-12T03:16:37;21.30;;;14.70;;
37873;SDS011;23709;48.078;11.684;2023-09-12T03:19:10;25.13;;;14.70;;
37873;SDS011;23709;48.078;11.684;2023-09-12T03:21:43;18.90;;;14.07;;
37873;SDS011;23709;48.078;11.684;2023-09-12T03:24:15;19.85;;;15.27;;
37873;SDS011;23709;48.078;11.684;2023-09-12T03:26:50;18.85;;;14.35;;
37873;SDS011;23709;48.078;11.684;2023-09-12T03:31:55;19.17;;;15.00;;
37873;SDS011;23709;48.078;11.684;2023-09-12T03:34:28;20.58;;;15.15;;
37873;SDS011;23709;48.078;11.684;2023-09-12T03:37:01;19.02;;;14.32;;
37873;SDS011;23709;48.078;11.684;2023-09-12T03:39:34;18.67;;;15.52;;
37873;SDS011;23709;48.078;11.684;2023-09-12T03:42:07;18.73;;;14.13;;
37873;SDS011;23709;48.078;11.684;2023-09-12T03:44:39;16.92;;;14.05;;
37873;SDS011;23709;48.078;11.684;2023-09-12T03:47:11;18.75;;;14.63;;
37873;SDS011;23709;48.078;11.684;2023-09-12T03:49:44;18.00;;;14.93;;
37873;SDS011;23709;48.078;11.684;2023-09-12T03:52:16;17.45;;;13.43;;
37873;SDS011;23709;48.078;11.684;2023-09-12T03:54:48;18.55;;;14.77;;
37873;SDS011;23709;48.078;11.684;2023-09-12T03:57:20;17.73;;;14.45;;
37873;SDS011;23709;48.078;11.684;2023-09-12T03:59:53;16.20;;;14.25;;
37873;SDS011;23709;48.078;11.684;2023-09-12T04:02:25;15.98;;;13.82;;
37873;SDS011;23709;48.078;11.684;2023-09-12T04:04:57;18.10;;;14.63;;
37873;SDS011;23709;48.078;11.684;2023-09-12T04:07:31;17.42;;;14.15;;
37873;SDS011;23709;48.078;11.684;2023-09-12T04:10:03;20.27;;;15.13;;
37873;SDS011;23709;48.078;11.684;2023-09-12T04:12:36;16.73;;;14.50;;
37873;SDS011;23709;48.078;11.684;2023-09-12T04:15:08;19.08;;;15.40;;
37873;SDS011;23709;48.078;11.684;2023-09-12T04:17:41;18.85;;;14.48;;
37873;SDS011;23709;48.078;11.684;2023-09-12T04:20:14;25.48;;;16.17;;
37873;SDS011;23709;48.078;11.684;2023-09-12T04:22:46;18.17;;;14.48;;
37873;SDS011;23709;48.078;11.684;2023-09-12T04:25:19;17.38;;;14.20;;
37873;SDS011;23709;48.078;11.684;2023-09-12T04:27:51;18.93;;;14.43;;
37873;SDS011;23709;48.078;11.684;2023-09-12T04:30:24;22.48;;;14.40;;
37873;SDS011;23709;48.078;11.684;2023-09-12T04:32:57;19.15;;;13.98;;
37873;SDS011;23709;48.078;11.684;2023-09-12T04:35:32;18.58;;;14.68;;
37873;SDS011;23709;48.078;11.684;2023-09-12T04:38:06;20.70;;;15.10;;
37873;SDS011;23709;48.078;11.684;2023-09-12T04:40:38;24.15;;;14.40;;
37873;SDS011;23709;48.078;11.684;2023-09-12T04:43:11;22.08;;;15.23;;
37873;SDS011;23709;48.078;11.684;2023-09-12T04:45:43;18.15;;;14.23;;
37873;SDS011;23709;48.078;11.684;2023-09-12T04:48:16;18.27;;;13.98;;
37873;SDS011;23709;48.078;11.684;2023-09-12T04:50:48;18.90;;;14.15;;
37873;SDS011;23709;48.078;11.684;2023-09-12T04:53:21;20.70;;;15.70;;
37873;SDS011;23709;48.078;11.684;2023-09-12T04:55:53;19.27;;;14.85;;
37873;SDS011;23709;48.078;11.684;2023-09-12T04:58:26;18.58;;;14.98;;
37873;SDS011;23709;48.078;11.684;2023-09-12T05:00:58;19.10;;;14.93;;
37873;SDS011;23709;48.078;11.684;2023-09-12T05:03:31;19.40;;;14.57;;
37873;SDS011;23709;48.078;11.684;2023-09-12T05:06:05;21.90;;;14.57;;
37873;SDS011;23709;48.078;11.684;2023-09-12T05:08:38;21.27;;;15.20;;
37873;SDS011;23709;48.078;11.684;2023-09-12T05:11:11;18.67;;;14.23;;
37873;SDS011;23709;48.078;11.684;2023-09-12T05:13:43;20.45;;;14.30;;
37873;SDS011;23709;48.078;11.684;2023-09-12T05:16:16;18.10;;;13.98;;
37873;SDS011;23709;48.078;11.684;2023-09-12T05:18:49;19.75;;;15.23;;
37873;SDS011;23709;48.078;11.684;2023-09-12T05:21:22;19.98;;;14.93;;
37873;SDS011;23709;48.078;11.684;2023-09-12T05:23:55;20.65;;;15.98;;
37873;SDS011;23709;48.078;11.684;2023-09-12T05:26:27;19.50;;;15.45;;
37873;SDS011;23709;48.078;11.684;2023-09-12T05:28:59;19.35;;;15.38;;
37873;SDS011;23709;48.078;11.684;2023-09-12T05:31:31;21.92;;;15.25;;
37873;SDS011;23709;48.078;11.684;2023-09-12T05:34:04;18.05;;;14.85;;
37873;SDS011;23709;48.078;11.684;2023-09-12T05:36:36;18.13;;;14.77;;
37873;SDS011;23709;48.078;11.684;2023-09-12T05:39:09;22.20;;;14.98;;
37873;SDS011;23709;48.078;11.684;2023-09-12T05:41:41;20.23;;;14.68;;
37873;SDS011;23709;48.078;11.684;2023-09-12T05:44:14;23.63;;;14.80;;
37873;SDS011;23709;48.078;11.684;2023-09-12T05:46:50;17.77;;;14.07;;
37873;SDS011;23709;48.078;11.684;2023-09-12T05:49:22;22.50;;;15.00;;
37873;SDS011;23709;48.078;11.684;2023-09-12T05:51:55;22.48;;;15.45;;
37873;SDS011;23709;48.078;11.684;2023-09-12T05:54:27;19.83;;;14.55;;
37873;SDS011;23709;48.078;11.684;2023-09-12T05:56:59;20.20;;;14.30;;
37873;SDS011;23709;48.078;11.684;2023-09-12T05:59:35;20.17;;;14.32;;
37873;SDS011;23709;48.078;11.684;2023-09-12T06:02:09;17.58;;;14.30;;
37873;SDS011;23709;48.078;11.684;2023-09-12T06:04:42;19.35;;;15.77;;
37873;SDS011;23709;48.078;11.684;2023-09-12T06:07:14;19.23;;;14.88;;
37873;SDS011;23709;48.078;11.684;2023-09-12T06:09:47;18.20;;;14.02;;
37873;SDS011;23709;48.078;11.684;2023-09-12T06:12:19;21.67;;;14.20;;
37873;SDS011;23709;48.078;11.684;2023-09-12T06:14:52;17.58;;;14.32;;
37873;SDS011;23709;48.078;11.684;2023-09-12T06:17:26;19.35;;;14.25;;
37873;SDS011;23709;48.078;11.684;2023-09-12T06:19:59;17.17;;;14.43;;
37873;SDS011;23709;48.078;11.684;2023-09-12T06:22:31;17.75;;;14.27;;
37873;SDS011;23709;48.078;11.684;2023-09-12T06:25:04;20.23;;;13.88;;
37873;SDS011;23709;48.078;11.684;2023-09-12T06:30:10;24.65;;;15.32;;
37873;SDS011;23709;48.078;11.684;2023-09-12T06:32:43;23.02;;;14.95;;
37873;SDS011;23709;48.078;11.684;2023-09-12T06:35:15;20.95;;;14.40;;
37873;SDS011;23709;48.078;11.684;2023-09-12T06:37:47;22.23;;;14.55;;
37873;SDS011;23709;48.078;11.684;2023-09-12T06:40:20;16.93;;;13.80;;
37873;SDS011;23709;48.078;11.684;2023-09-12T06:42:53;19.42;;;14.07;;
37873;SDS011;23709;48.078;11.684;2023-09-12T06:45:25;22.35;;;13.80;;
37873;SDS011;23709;48.078;11.684;2023-09-12T06:47:57;18.05;;;13.32;;
37873;SDS011;23709;48.078;11.684;2023-09-12T06:50:30;19.55;;;13.77;;
37873;SDS011;23709;48.078;11.684;2023-09-12T06:53:05;18.02;;;13.57;;
37873;SDS011;23709;48.078;11.684;2023-09-12T06:55:38;16.85;;;13.18;;
37873;SDS011;23709;48.078;11.684;2023-09-12T06:58:11;18.65;;;14.30;;
37873;SDS011;23709;48.078;11.684;2023-09-12T07:00:44;22.80;;;14.05;;
37873;SDS011;23709;48.078;11.684;2023-09-12T07:03:17;26.57;;;14.27;;
37873;SDS011;23709;48.078;11.684;2023-09-12T07:05:49;19.93;;;13.40;;
37873;SDS011;23709;48.078;11.684;2023-09-12T07:08:21;22.60;;;14.27;;
37873;SDS011;23709;48.078;11.684;2023-09-12T07:10:54;20.13;;;14.35;;
37873;SDS011;23709;48.078;11.684;2023-09-12T07:13:28;16.55;;;13.07;;
37873;SDS011;23709;48.078;11.684;2023-09-12T07:16:00;18.15;;;13.70;;
37873;SDS011;23709;48.078;11.684;2023-09-12T07:18:35;18.40;;;13.35;;
37873;SDS011;23709;48.078;11.684;2023-09-12T07:21:08;20.27;;;13.63;;
37873;SDS011;23709;48.078;11.684;2023-09-12T07:23:43;23.35;;;13.60;;
37873;SDS011;23709;48.078;11.684;2023-09-12T07:26:15;20.20;;;14.15;;
37873;SDS011;23709;48.078;11.684;2023-09-12T07:28:48;17.75;;;13.18;;
37873;SDS011;23709;48.078;11.684;2023-09-12T07:31:21;15.52;;;12.90;;
37873;SDS011;23709;48.078;11.684;2023-09-12T07:33:54;16.67;;;13.77;;
37873;SDS011;23709;48.078;11.684;2023-09-12T07:36:26;16.30;;;12.65;;
37873;SDS011;23709;48.078;11.684;2023-09-12T07:38:58;20.30;;;13.80;;
37873;SDS011;23709;48.078;11.684;2023-09-12T07:41:31;18.45;;;13.45;;
37873;SDS011;23709;48.078;11.684;2023-09-12T07:44:03;15.80;;;12.82;;
37873;SDS011;23709;48.078;11.684;2023-09-12T07:46:37;20.77;;;13.48;;
37873;SDS011;23709;48.078;11.684;2023-09-12T07:49:09;21.08;;;14.18;;
37873;SDS011;23709;48.078;11.684;2023-09-12T07:51:42;18.77;;;14.35;;
37873;SDS011;23709;48.078;11.684;2023-09-12T07:54:14;16.33;;;13.25;;
37873;SDS011;23709;48.078;11.684;2023-09-12T07:56:46;18.20;;;13.63;;
37873;SDS011;23709;48.078;11.684;2023-09-12T07:59:18;20.52;;;13.30;;
37873;SDS011;23709;48.078;11.684;2023-09-12T08:01:50;20.55;;;13.27;;
37873;SDS011;23709;48.078;11.684;2023-09-12T08:04:23;23.87;;;13.33;;
37873;SDS011;23709;48.078;11.684;2023-09-12T08:06:55;17.33;;;13.65;;
37873;SDS011;23709;48.078;11.684;2023-09-12T08:09:47;16.90;;;13.32;;
37873;SDS011;23709;48.078;11.684;2023-09-12T08:12:20;17.15;;;13.43;;
37873;SDS011;23709;48.078;11.684;2023-09-12T08:14:54;19.23;;;12.60;;
37873;SDS011;23709;48.078;11.684;2023-09-12T08:17:27;19.70;;;13.65;;
37873;SDS011;23709;48.078;11.684;2023-09-12T08:19:59;22.43;;;13.20;;
37873;SDS011;23709;48.078;11.684;2023-09-12T08:22:34;17.67;;;13.60;;
37873;SDS011;23709;48.078;11.684;2023-09-12T08:25:07;17.35;;;13.15;;
37873;SDS011;23709;48.078;11.684;2023-09-12T08:27:40;20.08;;;14.18;;
37873;SDS011;23709;48.078;11.684;2023-09-12T08:30:14;20.20;;;13.40;;
37873;SDS011;23709;48.078;11.684;2023-09-12T08:32:48;23.15;;;13.27;;
37873;SDS011;23709;48.078;11.684;2023-09-12T08:35:20;18.30;;;12.43;;
37873;SDS011;23709;48.078;11.684;2023-09-12T08:37:53;22.90;;;13.45;;
37873;SDS011;23709;48.078;11.684;2023-09-12T08:40:25;24.77;;;13.73;;
37873;SDS011;23709;48.078;11.684;2023-09-12T08:42:57;19.23;;;12.45;;
37873;SDS011;23709;48.078;11.684;2023-09-12T08:45:30;16.08;;;12.50;;
37873;SDS011;23709;48.078;11.684;2023-09-12T08:48:03;14.47;;;12.60;;
37873;SDS011;23709;48.078;11.684;2023-09-12T08:50:37;20.60;;;12.32;;
37873;SDS011;23709;48.078;11.684;2023-09-12T08:53:09;19.83;;;13.07;;
37873;SDS011;23709;48.078;11.684;2023-09-12T08:55:42;19.75;;;12.88;;
37873;SDS011;23709;48.078;11.684;2023-09-12T08:58:14;23.25;;;12.35;;
37873;SDS011;23709;48.078;11.684;2023-09-12T09:00:47;17.20;;;12.10;;
37873;SDS011;23709;48.078;11.684;2023-09-12T09:03:19;13.25;;;11.85;;
37873;SDS011;23709;48.078;11.684;2023-09-12T09:05:53;16.48;;;11.90;;
37873;SDS011;23709;48.078;11.684;2023-09-12T09:08:27;20.98;;;12.52;;
37873;SDS011;23709;48.078;11.684;2023-09-12T09:11:01;15.35;;;11.95;;
37873;SDS011;23709;48.078;11.684;2023-09-12T09:13:38;16.35;;;11.93;;
37873;SDS011;23709;48.078;11.684;2023-09-12T09:16:14;22.42;;;12.95;;
37873;SDS011;23709;48.078;11.684;2023-09-12T09:18:58;17.27;;;11.77;;
37873;SDS011;23709;48.078;11.684;2023-09-12T09:21:33;18.15;;;12.13;;
37873;SDS011;23709;48.078;11.684;2023-09-12T09:24:06;16.60;;;12.00;;
37873;SDS011;23709;48.078;11.684;2023-09-12T09:26:47;18.50;;;12.07;;
37873;SDS011;23709;48.078;11.684;2023-09-12T09:29:20;19.85;;;11.98;;
37873;SDS011;23709;48.078;11.684;2023-09-12T09:31:53;22.27;;;12.30;;
37873;SDS011;23709;48.078;11.684;2023-09-12T09:34:25;17.27;;;12.60;;
37873;SDS011;23709;48.078;11.684;2023-09-12T09:37:02;14.10;;;12.05;;
37873;SDS011;23709;48.078;11.684;2023-09-12T09:39:36;14.68;;;11.60;;
37873;SDS011;23709;48.078;11.684;2023-09-12T09:42:10;17.35;;;12.32;;
37873;SDS011;23709;48.078;11.684;2023-09-12T09:44:43;16.45;;;11.90;;
37873;SDS011;23709;48.078;11.684;2023-09-12T09:47:15;16.15;;;11.75;;
37873;SDS011;23709;48.078;11.684;2023-09-12T09:49:51;18.58;;;11.88;;
37873;SDS011;23709;48.078;11.684;2023-09-12T09:52:26;18.17;;;12.10;;
37873;SDS011;23709;48.078;11.684;2023-09-12T09:54:59;13.93;;;11.55;;
37873;SDS011;23709;48.078;11.684;2023-09-12T09:57:38;13.77;;;11.40;;
37873;SDS011;23709;48.078;11.684;2023-09-12T10:00:11;15.05;;;11.75;;
37873;SDS011;23709;48.078;11.684;2023-09-12T10:02:47;17.63;;;11.75;;
37873;SDS011;23709;48.078;11.684;2023-09-12T10:05:22;17.02;;;12.02;;
37873;SDS011;23709;48.078;11.684;2023-09-12T10:07:55;15.48;;;11.27;;
37873;SDS011;23709;48.078;11.684;2023-09-12T10:10:29;18.17;;;11.73;;
37873;SDS011;23709;48.078;11.684;2023-09-12T10:13:03;14.50;;;11.20;;
37873;SDS011;23709;48.078;11.684;2023-09-12T10:15:36;13.73;;;11.90;;
37873;SDS011;23709;48.078;11.684;2023-09-12T10:18:10;13.93;;;11.27;;
37873;SDS011;23709;48.078;11.684;2023-09-12T10:21:05;13.93;;;11.60;;
37873;SDS011;23709;48.078;11.684;2023-09-12T10:23:45;13.07;;;10.23;;
37873;SDS011;23709;48.078;11.684;2023-09-12T10:26:22;12.00;;;10.00;;
37873;SDS011;23709;48.078;11.684;2023-09-12T10:28:55;13.52;;;10.10;;
37873;SDS011;23709;48.078;11.684;2023-09-12T10:31:29;11.32;;;9.48;;
37873;SDS011;23709;48.078;11.684;2023-09-12T10:34:03;17.20;;;10.15;;
37873;SDS011;23709;48.078;11.684;2023-09-12T10:36:40;14.57;;;9.80;;
37873;SDS011;23709;48.078;11.684;2023-09-12T10:39:14;12.63;;;10.27;;
37873;SDS011;23709;48.078;11.684;2023-09-12T10:41:47;14.88;;;11.15;;
37873;SDS011;23709;48.078;11.684;2023-09-12T10:44:21;13.48;;;10.25;;
37873;SDS011;23709;48.078;11.684;2023-09-12T10:46:54;14.38;;;10.43;;
37873;SDS011;23709;48.078;11.684;2023-09-12T10:49:26;15.87;;;9.60;;
37873;SDS011;23709;48.078;11.684;2023-09-12T10:51:59;14.43;;;10.02;;
37873;SDS011;23709;48.078;11.684;2023-09-12T10:54:36;14.30;;;10.17;;
37873;SDS011;23709;48.078;11.684;2023-09-12T10:57:10;13.38;;;10.55;;
37873;SDS011;23709;48.078;11.684;2023-09-12T11:02:37;14.10;;;10.63;;
37873;SDS011;23709;48.078;11.684;2023-09-12T11:08:02;11.50;;;10.10;;
37873;SDS011;23709;48.078;11.684;2023-09-12T11:10:38;14.18;;;10.40;;
37873;SDS011;23709;48.078;11.684;2023-09-12T11:13:19;14.25;;;10.35;;
37873;SDS011;23709;48.078;11.684;2023-09-12T11:16:10;14.57;;;10.20;;
37873;SDS011;23709;48.078;11.684;2023-09-12T11:21:36;10.75;;;9.55;;
37873;SDS011;23709;48.078;11.684;2023-09-12T11:24:09;14.80;;;10.65;;
37873;SDS011;23709;48.078;11.684;2023-09-12T11:29:27;14.02;;;9.52;;
37873;SDS011;23709;48.078;11.684;2023-09-12T11:32:10;15.98;;;9.35;;
37873;SDS011;23709;48.078;11.684;2023-09-12T11:34:56;15.27;;;9.57;;
37873;SDS011;23709;48.078;11.684;2023-09-12T11:37:28;11.27;;;9.93;;
37873;SDS011;23709;48.078;11.684;2023-09-12T11:40:01;12.10;;;9.25;;
37873;SDS011;23709;48.078;11.684;2023-09-12T11:42:54;11.00;;;9.75;;
37873;SDS011;23709;48.078;11.684;2023-09-12T11:45:29;16.25;;;9.88;;
37873;SDS011;23709;48.078;11.684;2023-09-12T11:48:02;11.80;;;9.73;;
37873;SDS011;23709;48.078;11.684;2023-09-12T11:53:09;11.45;;;9.98;;
37873;SDS011;23709;48.078;11.684;2023-09-12T11:58:16;14.23;;;9.73;;
37873;SDS011;23709;48.078;11.684;2023-09-12T12:00:53;11.38;;;9.00;;
37873;SDS011;23709;48.078;11.684;2023-09-12T12:03:27;11.30;;;9.38;;
37873;SDS011;23709;48.078;11.684;2023-09-12T12:06:00;12.93;;;9.60;;
37873;SDS011;23709;48.078;11.684;2023-09-12T12:08:32;10.43;;;9.27;;
37873;SDS011;23709;48.078;11.684;2023-09-12T12:11:06;11.25;;;8.73;;
37873;SDS011;23709;48.078;11.684;2023-09-12T12:13:38;10.48;;;8.93;;
37873;SDS011;23709;48.078;11.684;2023-09-12T12:16:17;12.13;;;8.93;;
37873;SDS011;23709;48.078;11.684;2023-09-12T12:18:49;12.43;;;9.07;;
37873;SDS011;23709;48.078;11.684;2023-09-12T12:21:26;12.95;;;9.35;;
37873;SDS011;23709;48.078;11.684;2023-09-12T12:24:02;12.65;;;8.68;;
37873;SDS011;23709;48.078;11.684;2023-09-12T12:26:35;9.73;;;8.73;;
37873;SDS011;23709;48.078;11.684;2023-09-12T12:29:08;9.80;;;8.52;;
37873;SDS011;23709;48.078;11.684;2023-09-12T12:31:41;11.02;;;8.85;;
37873;SDS011;23709;48.078;11.684;2023-09-12T12:37:06;11.30;;;9.77;;
37873;SDS011;23709;48.078;11.684;2023-09-12T12:39:42;12.50;;;9.98;;
37873;SDS011;23709;48.078;11.684;2023-09-12T12:42:15;11.07;;;9.15;;
37873;SDS011;23709;48.078;11.684;2023-09-12T12:44:52;11.13;;;9.80;;
37873;SDS011;23709;48.078;11.684;2023-09-12T12:47:25;12.30;;;10.10;;
37873;SDS011;23709;48.078;11.684;2023-09-12T12:52:31;11.15;;;9.07;;
37873;SDS011;23709;48.078;11.684;2023-09-12T12:55:06;11.68;;;9.05;;
37873;SDS011;23709;48.078;11.684;2023-09-12T12:57:42;9.70;;;8.70;;
37873;SDS011;23709;48.078;11.684;2023-09-12T13:00:16;15.77;;;9.57;;
37873;SDS011;23709;48.078;11.684;2023-09-12T13:02:50;10.63;;;9.07;;
37873;SDS011;23709;48.078;11.684;2023-09-12T13:05:26;11.68;;;9.25;;
37873;SDS011;23709;48.078;11.684;2023-09-12T13:07:59;11.80;;;9.13;;
37873;SDS011;23709;48.078;11.684;2023-09-12T13:10:32;11.43;;;9.80;;
37873;SDS011;23709;48.078;11.684;2023-09-12T13:13:04;14.25;;;10.40;;
37873;SDS011;23709;48.078;11.684;2023-09-12T13:15:36;10.63;;;9.52;;
37873;SDS011;23709;48.078;11.684;2023-09-12T13:20:42;11.10;;;9.70;;
37873;SDS011;23709;48.078;11.684;2023-09-12T13:23:14;11.55;;;9.30;;
37873;SDS011;23709;48.078;11.684;2023-09-12T13:25:47;10.82;;;9.32;;
37873;SDS011;23709;48.078;11.684;2023-09-12T13:28:19;10.88;;;9.88;;
37873;SDS011;23709;48.078;11.684;2023-09-12T13:30:52;12.70;;;10.23;;
37873;SDS011;23709;48.078;11.684;2023-09-12T13:33:25;10.48;;;9.38;;
37873;SDS011;23709;48.078;11.684;2023-09-12T13:35:58;12.93;;;9.55;;
37873;SDS011;23709;48.078;11.684;2023-09-12T13:38:30;12.95;;;9.25;;
37873;SDS011;23709;48.078;11.684;2023-09-12T13:41:03;11.50;;;9.30;;
37873;SDS011;23709;48.078;11.684;2023-09-12T13:43:35;11.40;;;9.70;;
37873;SDS011;23709;48.078;11.684;2023-09-12T13:46:07;13.23;;;9.77;;
37873;SDS011;23709;48.078;11.684;2023-09-12T13:48:42;11.35;;;9.68;;
37873;SDS011;23709;48.078;11.684;2023-09-12T13:51:17;11.27;;;9.70;;
37873;SDS011;23709;48.078;11.684;2023-09-12T13:53:49;10.82;;;9.55;;
37873;SDS011;23709;48.078;11.684;2023-09-12T13:56:21;10.75;;;9.65;;
37873;SDS011;23709;48.078;11.684;2023-09-12T13:58:54;11.73;;;9.75;;
37873;SDS011;23709;48.078;11.684;2023-09-12T14:01:27;9.63;;;8.63;;
37873;SDS011;23709;48.078;11.684;2023-09-12T14:04:09;14.70;;;9.70;;
37873;SDS011;23709;48.078;11.684;2023-09-12T14:06:41;13.82;;;10.35;;
37873;SDS011;23709;48.078;11.684;2023-09-12T14:09:15;13.82;;;10.00;;
37873;SDS011;23709;48.078;11.684;2023-09-12T14:11:56;12.65;;;9.20;;
37873;SDS011;23709;48.078;11.684;2023-09-12T14:17:01;11.88;;;9.63;;
37873;SDS011;23709;48.078;11.684;2023-09-12T14:19:34;11.23;;;10.07;;
37873;SDS011;23709;48.078;11.684;2023-09-12T14:22:08;13.13;;;9.77;;
37873;SDS011;23709;48.078;11.684;2023-09-12T14:24:41;14.63;;;10.07;;
37873;SDS011;23709;48.078;11.684;2023-09-12T14:27:14;10.82;;;9.77;;
37873;SDS011;23709;48.078;11.684;2023-09-12T14:29:57;19.73;;;10.63;;
37873;SDS011;23709;48.078;11.684;2023-09-12T14:32:31;12.65;;;9.27;;
37873;SDS011;23709;48.078;11.684;2023-09-12T14:35:03;14.98;;;9.98;;
37873;SDS011;23709;48.078;11.684;2023-09-12T14:40:08;14.77;;;9.88;;
37873;SDS011;23709;48.078;11.684;2023-09-12T14:42:43;11.10;;;9.68;;
37873;SDS011;23709;48.078;11.684;2023-09-12T14:45:15;12.43;;;10.23;;
37873;SDS011;23709;48.078;11.684;2023-09-12T14:47:48;10.98;;;9.88;;
37873;SDS011;23709;48.078;11.684;2023-09-12T14:50:20;13.80;;;10.20;;
37873;SDS011;23709;48.078;11.684;2023-09-12T14:53:10;14.25;;;10.77;;
37873;SDS011;23709;48.078;11.684;2023-09-12T14:55:44;11.98;;;10.18;;
37873;SDS011;23709;48.078;11.684;2023-09-12T14:58:17;16.63;;;11.50;;
37873;SDS011;23709;48.078;11.684;2023-09-12T15:00:50;16.48;;;10.50;;
37873;SDS011;23709;48.078;11.684;2023-09-12T15:03:22;13.68;;;10.60;;
37873;SDS011;23709;48.078;11.684;2023-09-12T15:05:55;13.23;;;11.10;;
37873;SDS011;23709;48.078;11.684;2023-09-12T15:08:27;12.32;;;10.63;;
37873;SDS011;23709;48.078;11.684;2023-09-12T15:10:59;15.07;;;10.40;;
37873;SDS011;23709;48.078;11.684;2023-09-12T15:13:31;12.52;;;10.88;;
37873;SDS011;23709;48.078;11.684;2023-09-12T15:16:04;19.37;;;11.17;;
37873;SDS011;23709;48.078;11.684;2023-09-12T15:18:36;12.02;;;10.77;;
37873;SDS011;23709;48.078;11.684;2023-09-12T15:21:12;17.40;;;11.02;;
37873;SDS011;23709;48.078;11.684;2023-09-12T15:23:44;14.27;;;11.30;;
37873;SDS011;23709;48.078;11.684;2023-09-12T15:26:16;16.10;;;11.77;;
37873;SDS011;23709;48.078;11.684;2023-09-12T15:28:49;13.37;;;11.40;;
37873;SDS011;23709;48.078;11.684;2023-09-12T15:31:21;16.50;;;11.35;;
37873;SDS011;23709;48.078;11.684;2023-09-12T15:33:54;13.52;;;10.30;;